sensor_id;sensor_type;location;lat;lon;timestamp;P1;durP1;ratioP1;P2;durP2;ratioP2
4909;SDS011;2470;49.868;8.660;2024-01-15T00:01:13;28.07;;;10.57;;
4909;SDS011;2470;49.868;8.660;2024-01-15T00:03:39;32.43;;;11.60;;
4909;SDS011;2470;49.868;8.660;2024-01-15T00:06:05;25.83;;;10.80;;
4909;SDS011;2470;49.868;8.660;2024-01-15T00:08:30;32.17;;;11.33;;
4909;SDS011;2470;49.868;8.660;2024-01-15T00:10:56;24.50;;;12.00;;
4909;SDS011;2470;49.868;8.660;2024-01-15T00:13:21;43.67;;;13.40;;
4909;SDS011;2470;49.868;8.660;2024-01-15T00:15:47;32.60;;;11.93;;
4909;SDS011;2470;49.868;8.660;2024-01-15T00:18:13;31.87;;;10.87;;
4909;SDS011;2470;49.868;8.660;2024-01-15T00:20:39;38.13;;;11.03;;
4909;SDS011;2470;49.868;8.660;2024-01-15T00:23:04;29.53;;;12.50;;
4909;SDS011;2470;49.868;8.660;2024-01-15T00:25:30;39.17;;;14.80;;
4909;SDS011;2470;49.868;8.660;2024-01-15T00:27:55;39.07;;;12.37;;
4909;SDS011;2470;49.868;8.660;2024-01-15T00:30:21;25.53;;;10.77;;
4909;SDS011;2470;49.868;8.660;2024-01-15T00:32:46;49.43;;;13.50;;
4909;SDS011;2470;49.868;8.660;2024-01-15T00:35:12;26.20;;;9.17;;
4909;SDS011;2470;49.868;8.660;2024-01-15T00:37:38;35.70;;;12.40;;
4909;SDS011;2470;49.868;8.660;2024-01-15T00:40:04;41.00;;;11.17;;
4909;SDS011;2470;49.868;8.660;2024-01-15T00:42:30;32.10;;;11.73;;
4909;SDS011;2470;49.868;8.660;2024-01-15T00:44:56;40.83;;;9.87;;
4909;SDS011;2470;49.868;8.660;2024-01-15T00:47:21;31.63;;;13.33;;
4909;SDS011;2470;49.868;8.660;2024-01-15T00:49:47;36.83;;;12.07;;
4909;SDS011;2470;49.868;8.660;2024-01-15T00:52:12;28.63;;;10.10;;
4909;SDS011;2470;49.868;8.660;2024-01-15T00:54:38;32.03;;;11.20;;
4909;SDS011;2470;49.868;8.660;2024-01-15T00:57:05;33.23;;;11.83;;
4909;SDS011;2470;49.868;8.660;2024-01-15T00:59:30;20.33;;;9.17;;
4909;SDS011;2470;49.868;8.660;2024-01-15T01:01:56;25.63;;;10.43;;
4909;SDS011;2470;49.868;8.660;2024-01-15T01:04:21;32.30;;;9.47;;
4909;SDS011;2470;49.868;8.660;2024-01-15T01:06:47;24.60;;;10.00;;
4909;SDS011;2470;49.868;8.660;2024-01-15T01:09:13;42.13;;;12.83;;
4909;SDS011;2470;49.868;8.660;2024-01-15T01:11:38;24.73;;;9.87;;
4909;SDS011;2470;49.868;8.660;2024-01-15T01:14:04;29.00;;;10.23;;
4909;SDS011;2470;49.868;8.660;2024-01-15T01:16:30;33.80;;;12.00;;
4909;SDS011;2470;49.868;8.660;2024-01-15T01:18:56;30.80;;;11.47;;
4909;SDS011;2470;49.868;8.660;2024-01-15T01:21:22;29.77;;;10.53;;
4909;SDS011;2470;49.868;8.660;2024-01-15T01:23:47;30.40;;;12.70;;
4909;SDS011;2470;49.868;8.660;2024-01-15T01:26:15;26.20;;;10.03;;
4909;SDS011;2470;49.868;8.660;2024-01-15T01:28:41;26.23;;;10.67;;
4909;SDS011;2470;49.868;8.660;2024-01-15T01:31:06;19.37;;;10.27;;
4909;SDS011;2470;49.868;8.660;2024-01-15T01:33:33;21.80;;;9.17;;
4909;SDS011;2470;49.868;8.660;2024-01-15T01:35:59;33.90;;;11.50;;
4909;SDS011;2470;49.868;8.660;2024-01-15T01:38:24;35.13;;;10.73;;
4909;SDS011;2470;49.868;8.660;2024-01-15T01:40:50;37.17;;;9.83;;
4909;SDS011;2470;49.868;8.660;2024-01-15T01:43:15;34.23;;;10.67;;
4909;SDS011;2470;49.868;8.660;2024-01-15T01:45:41;27.03;;;10.13;;
4909;SDS011;2470;49.868;8.660;2024-01-15T01:48:06;34.83;;;10.03;;
4909;SDS011;2470;49.868;8.660;2024-01-15T01:50:32;28.33;;;9.40;;
4909;SDS011;2470;49.868;8.660;2024-01-15T01:52:58;30.20;;;10.60;;
4909;SDS011;2470;49.868;8.660;2024-01-15T01:55:26;23.37;;;9.73;;
4909;SDS011;2470;49.868;8.660;2024-01-15T01:57:54;22.03;;;8.60;;
4909;SDS011;2470;49.868;8.660;2024-01-15T02:00:20;29.93;;;8.27;;
4909;SDS011;2470;49.868;8.660;2024-01-15T02:02:46;31.37;;;10.50;;
4909;SDS011;2470;49.868;8.660;2024-01-15T02:05:11;29.17;;;11.73;;
4909;SDS011;2470;49.868;8.660;2024-01-15T02:07:38;39.93;;;10.90;;
4909;SDS011;2470;49.868;8.660;2024-01-15T02:10:05;30.60;;;10.27;;
4909;SDS011;2470;49.868;8.660;2024-01-15T02:12:31;30.57;;;10.47;;
4909;SDS011;2470;49.868;8.660;2024-01-15T02:14:57;31.03;;;10.90;;
4909;SDS011;2470;49.868;8.660;2024-01-15T02:17:22;27.50;;;9.53;;
4909;SDS011;2470;49.868;8.660;2024-01-15T02:19:49;21.50;;;8.77;;
4909;SDS011;2470;49.868;8.660;2024-01-15T02:22:15;22.47;;;8.63;;
4909;SDS011;2470;49.868;8.660;2024-01-15T02:24:41;28.60;;;9.70;;
4909;SDS011;2470;49.868;8.660;2024-01-15T02:27:07;25.83;;;11.00;;
4909;SDS011;2470;49.868;8.660;2024-01-15T02:29:32;16.70;;;8.10;;
4909;SDS011;2470;49.868;8.660;2024-01-15T02:31:58;35.10;;;12.10;;
4909;SDS011;2470;49.868;8.660;2024-01-15T02:34:23;24.33;;;9.00;;
4909;SDS011;2470;49.868;8.660;2024-01-15T02:36:49;23.10;;;10.87;;
4909;SDS011;2470;49.868;8.660;2024-01-15T02:39:14;33.03;;;10.00;;
4909;SDS011;2470;49.868;8.660;2024-01-15T02:41:40;28.53;;;10.20;;
4909;SDS011;2470;49.868;8.660;2024-01-15T02:44:05;26.40;;;8.73;;
4909;SDS011;2470;49.868;8.660;2024-01-15T02:46:31;22.00;;;9.07;;
4909;SDS011;2470;49.868;8.660;2024-01-15T02:48:56;28.73;;;9.30;;
4909;SDS011;2470;49.868;8.660;2024-01-15T02:51:22;26.77;;;10.63;;
4909;SDS011;2470;49.868;8.660;2024-01-15T02:53:48;29.23;;;10.77;;
4909;SDS011;2470;49.868;8.660;2024-01-15T02:56:15;26.20;;;9.40;;
4909;SDS011;2470;49.868;8.660;2024-01-15T02:58:40;35.03;;;11.23;;
4909;SDS011;2470;49.868;8.660;2024-01-15T03:01:06;15.13;;;8.10;;
4909;SDS011;2470;49.868;8.660;2024-01-15T03:03:31;17.03;;;7.37;;
4909;SDS011;2470;49.868;8.660;2024-01-15T03:05:58;22.60;;;9.53;;
4909;SDS011;2470;49.868;8.660;2024-01-15T03:08:23;20.67;;;7.43;;
4909;SDS011;2470;49.868;8.660;2024-01-15T03:10:49;25.67;;;8.57;;
4909;SDS011;2470;49.868;8.660;2024-01-15T03:13:14;21.63;;;8.53;;
4909;SDS011;2470;49.868;8.660;2024-01-15T03:15:40;32.00;;;11.97;;
4909;SDS011;2470;49.868;8.660;2024-01-15T03:18:05;27.93;;;8.50;;
4909;SDS011;2470;49.868;8.660;2024-01-15T03:20:31;31.40;;;11.40;;
4909;SDS011;2470;49.868;8.660;2024-01-15T03:22:57;25.80;;;9.63;;
4909;SDS011;2470;49.868;8.660;2024-01-15T03:25:22;31.63;;;10.07;;
4909;SDS011;2470;49.868;8.660;2024-01-15T03:27:47;15.30;;;7.70;;
4909;SDS011;2470;49.868;8.660;2024-01-15T03:30:13;29.67;;;10.63;;
4909;SDS011;2470;49.868;8.660;2024-01-15T03:32:39;18.37;;;8.93;;
4909;SDS011;2470;49.868;8.660;2024-01-15T03:35:04;32.03;;;9.70;;
4909;SDS011;2470;49.868;8.660;2024-01-15T03:37:30;20.60;;;7.90;;
4909;SDS011;2470;49.868;8.660;2024-01-15T03:39:55;25.53;;;9.80;;
4909;SDS011;2470;49.868;8.660;2024-01-15T03:42:21;25.90;;;8.73;;
4909;SDS011;2470;49.868;8.660;2024-01-15T03:44:47;32.70;;;9.73;;
4909;SDS011;2470;49.868;8.660;2024-01-15T03:47:12;23.17;;;9.30;;
4909;SDS011;2470;49.868;8.660;2024-01-15T03:49:38;14.37;;;7.10;;
4909;SDS011;2470;49.868;8.660;2024-01-15T03:52:03;23.80;;;10.10;;
4909;SDS011;2470;49.868;8.660;2024-01-15T03:54:29;25.50;;;7.63;;
4909;SDS011;2470;49.868;8.660;2024-01-15T03:56:55;27.17;;;10.00;;
4909;SDS011;2470;49.868;8.660;2024-01-15T03:59:20;20.10;;;9.83;;
4909;SDS011;2470;49.868;8.660;2024-01-15T04:01:49;24.27;;;7.47;;
4909;SDS011;2470;49.868;8.660;2024-01-15T04:04:15;23.57;;;9.77;;
4909;SDS011;2470;49.868;8.660;2024-01-15T04:06:42;23.67;;;9.90;;
4909;SDS011;2470;49.868;8.660;2024-01-15T04:09:07;26.67;;;9.87;;
4909;SDS011;2470;49.868;8.660;2024-01-15T04:11:33;22.57;;;9.20;;
4909;SDS011;2470;49.868;8.660;2024-01-15T04:13:58;24.63;;;8.97;;
4909;SDS011;2470;49.868;8.660;2024-01-15T04:16:24;24.40;;;9.73;;
4909;SDS011;2470;49.868;8.660;2024-01-15T04:18:49;36.83;;;9.30;;
4909;SDS011;2470;49.868;8.660;2024-01-15T04:21:16;24.57;;;10.40;;
4909;SDS011;2470;49.868;8.660;2024-01-15T04:23:43;28.57;;;10.10;;
4909;SDS011;2470;49.868;8.660;2024-01-15T04:26:09;24.23;;;8.93;;
4909;SDS011;2470;49.868;8.660;2024-01-15T04:28:34;39.70;;;8.60;;
4909;SDS011;2470;49.868;8.660;2024-01-15T04:31:00;20.10;;;6.70;;
4909;SDS011;2470;49.868;8.660;2024-01-15T04:33:25;28.73;;;9.87;;
4909;SDS011;2470;49.868;8.660;2024-01-15T04:35:51;23.77;;;7.80;;
4909;SDS011;2470;49.868;8.660;2024-01-15T04:38:16;22.63;;;8.20;;
4909;SDS011;2470;49.868;8.660;2024-01-15T04:40:42;23.50;;;8.97;;
4909;SDS011;2470;49.868;8.660;2024-01-15T04:43:07;19.53;;;6.70;;
4909;SDS011;2470;49.868;8.660;2024-01-15T04:45:33;20.60;;;9.07;;
4909;SDS011;2470;49.868;8.660;2024-01-15T04:47:58;23.00;;;8.87;;
4909;SDS011;2470;49.868;8.660;2024-01-15T04:50:23;24.67;;;7.43;;
4909;SDS011;2470;49.868;8.660;2024-01-15T04:52:49;21.97;;;8.93;;
4909;SDS011;2470;49.868;8.660;2024-01-15T04:55:15;26.83;;;9.07;;
4909;SDS011;2470;49.868;8.660;2024-01-15T04:57:41;22.60;;;10.63;;
4909;SDS011;2470;49.868;8.660;2024-01-15T05:00:06;25.60;;;9.47;;
4909;SDS011;2470;49.868;8.660;2024-01-15T05:02:32;21.87;;;10.63;;
4909;SDS011;2470;49.868;8.660;2024-01-15T05:04:58;35.53;;;10.10;;
4909;SDS011;2470;49.868;8.660;2024-01-15T05:07:23;17.10;;;7.23;;
4909;SDS011;2470;49.868;8.660;2024-01-15T05:09:49;21.07;;;10.00;;
4909;SDS011;2470;49.868;8.660;2024-01-15T05:12:14;17.50;;;7.97;;
4909;SDS011;2470;49.868;8.660;2024-01-15T05:14:40;25.50;;;7.47;;
4909;SDS011;2470;49.868;8.660;2024-01-15T05:17:05;31.70;;;8.30;;
4909;SDS011;2470;49.868;8.660;2024-01-15T05:19:31;21.87;;;8.00;;
4909;SDS011;2470;49.868;8.660;2024-01-15T05:21:56;21.93;;;8.47;;
4909;SDS011;2470;49.868;8.660;2024-01-15T05:24:22;20.77;;;8.80;;
4909;SDS011;2470;49.868;8.660;2024-01-15T05:26:47;23.67;;;8.77;;
4909;SDS011;2470;49.868;8.660;2024-01-15T05:29:13;18.80;;;8.13;;
4909;SDS011;2470;49.868;8.660;2024-01-15T05:31:38;21.60;;;8.43;;
4909;SDS011;2470;49.868;8.660;2024-01-15T05:34:04;22.03;;;8.20;;
4909;SDS011;2470;49.868;8.660;2024-01-15T05:36:29;18.60;;;8.40;;
4909;SDS011;2470;49.868;8.660;2024-01-15T05:38:55;29.53;;;8.93;;
4909;SDS011;2470;49.868;8.660;2024-01-15T05:41:20;20.07;;;8.13;;
4909;SDS011;2470;49.868;8.660;2024-01-15T05:43:46;24.50;;;8.57;;
4909;SDS011;2470;49.868;8.660;2024-01-15T05:46:11;23.53;;;9.17;;
4909;SDS011;2470;49.868;8.660;2024-01-15T05:48:37;29.00;;;9.70;;
4909;SDS011;2470;49.868;8.660;2024-01-15T05:51:02;25.73;;;8.90;;
4909;SDS011;2470;49.868;8.660;2024-01-15T05:53:28;21.37;;;8.97;;
4909;SDS011;2470;49.868;8.660;2024-01-15T05:55:54;22.37;;;8.20;;
4909;SDS011;2470;49.868;8.660;2024-01-15T05:58:20;19.10;;;8.40;;
4909;SDS011;2470;49.868;8.660;2024-01-15T06:00:46;26.13;;;8.70;;
4909;SDS011;2470;49.868;8.660;2024-01-15T06:03:12;24.13;;;7.80;;
4909;SDS011;2470;49.868;8.660;2024-01-15T06:05:38;20.77;;;8.70;;
4909;SDS011;2470;49.868;8.660;2024-01-15T06:08:04;25.90;;;8.17;;
4909;SDS011;2470;49.868;8.660;2024-01-15T06:10:30;16.07;;;9.23;;
4909;SDS011;2470;49.868;8.660;2024-01-15T06:12:55;23.73;;;9.10;;
4909;SDS011;2470;49.868;8.660;2024-01-15T06:15:21;27.53;;;9.77;;
4909;SDS011;2470;49.868;8.660;2024-01-15T06:17:46;19.07;;;8.97;;
4909;SDS011;2470;49.868;8.660;2024-01-15T06:20:12;20.37;;;8.00;;
4909;SDS011;2470;49.868;8.660;2024-01-15T06:22:38;22.90;;;9.17;;
4909;SDS011;2470;49.868;8.660;2024-01-15T06:25:04;18.33;;;7.50;;
4909;SDS011;2470;49.868;8.660;2024-01-15T06:27:31;23.10;;;8.90;;
4909;SDS011;2470;49.868;8.660;2024-01-15T06:29:57;21.30;;;9.70;;
4909;SDS011;2470;49.868;8.660;2024-01-15T06:32:22;24.17;;;8.30;;
4909;SDS011;2470;49.868;8.660;2024-01-15T06:34:48;20.40;;;7.17;;
4909;SDS011;2470;49.868;8.660;2024-01-15T06:37:13;20.47;;;9.33;;
4909;SDS011;2470;49.868;8.660;2024-01-15T06:39:39;22.97;;;8.47;;
4909;SDS011;2470;49.868;8.660;2024-01-15T06:42:04;24.20;;;9.43;;
4909;SDS011;2470;49.868;8.660;2024-01-15T06:44:30;24.07;;;8.30;;
4909;SDS011;2470;49.868;8.660;2024-01-15T06:46:55;26.20;;;9.20;;
4909;SDS011;2470;49.868;8.660;2024-01-15T06:49:25;24.73;;;7.90;;
4909;SDS011;2470;49.868;8.660;2024-01-15T06:51:50;27.63;;;9.40;;
4909;SDS011;2470;49.868;8.660;2024-01-15T06:54:16;20.23;;;7.13;;
4909;SDS011;2470;49.868;8.660;2024-01-15T06:56:41;23.30;;;9.50;;
4909;SDS011;2470;49.868;8.660;2024-01-15T06:59:07;23.13;;;8.60;;
4909;SDS011;2470;49.868;8.660;2024-01-15T07:01:32;16.93;;;7.93;;
4909;SDS011;2470;49.868;8.660;2024-01-15T07:03:58;20.10;;;8.60;;
4909;SDS011;2470;49.868;8.660;2024-01-15T07:06:24;25.57;;;9.03;;
4909;SDS011;2470;49.868;8.660;2024-01-15T07:08:49;20.23;;;7.30;;
4909;SDS011;2470;49.868;8.660;2024-01-15T07:11:15;24.20;;;8.87;;
4909;SDS011;2470;49.868;8.660;2024-01-15T07:13:40;20.77;;;8.47;;
4909;SDS011;2470;49.868;8.660;2024-01-15T07:16:06;25.33;;;7.30;;
4909;SDS011;2470;49.868;8.660;2024-01-15T07:18:32;22.70;;;7.27;;
4909;SDS011;2470;49.868;8.660;2024-01-15T07:20:57;28.27;;;8.33;;
4909;SDS011;2470;49.868;8.660;2024-01-15T07:23:24;24.97;;;9.33;;
4909;SDS011;2470;49.868;8.660;2024-01-15T07:25:49;18.87;;;7.50;;
4909;SDS011;2470;49.868;8.660;2024-01-15T07:28:15;16.30;;;7.00;;
4909;SDS011;2470;49.868;8.660;2024-01-15T07:30:40;15.70;;;7.40;;
4909;SDS011;2470;49.868;8.660;2024-01-15T07:33:06;21.67;;;9.30;;
4909;SDS011;2470;49.868;8.660;2024-01-15T07:35:31;22.13;;;8.77;;
4909;SDS011;2470;49.868;8.660;2024-01-15T07:37:57;20.03;;;8.77;;
4909;SDS011;2470;49.868;8.660;2024-01-15T07:40:23;18.90;;;7.70;;
4909;SDS011;2470;49.868;8.660;2024-01-15T07:42:49;20.27;;;8.30;;
4909;SDS011;2470;49.868;8.660;2024-01-15T07:45:15;21.10;;;8.60;;
4909;SDS011;2470;49.868;8.660;2024-01-15T07:47:41;27.70;;;11.40;;
4909;SDS011;2470;49.868;8.660;2024-01-15T07:50:06;22.60;;;8.70;;
4909;SDS011;2470;49.868;8.660;2024-01-15T07:52:32;18.27;;;10.10;;
4909;SDS011;2470;49.868;8.660;2024-01-15T07:54:57;23.93;;;10.13;;
4909;SDS011;2470;49.868;8.660;2024-01-15T07:57:28;26.17;;;8.50;;
4909;SDS011;2470;49.868;8.660;2024-01-15T07:59:54;18.73;;;8.47;;
4909;SDS011;2470;49.868;8.660;2024-01-15T08:02:19;30.87;;;9.30;;
4909;SDS011;2470;49.868;8.660;2024-01-15T08:04:45;17.93;;;9.00;;
4909;SDS011;2470;49.868;8.660;2024-01-15T08:07:10;19.30;;;9.50;;
4909;SDS011;2470;49.868;8.660;2024-01-15T08:09:36;40.33;;;12.00;;
4909;SDS011;2470;49.868;8.660;2024-01-15T08:12:02;24.40;;;10.57;;
4909;SDS011;2470;49.868;8.660;2024-01-15T08:14:27;20.57;;;9.43;;
4909;SDS011;2470;49.868;8.660;2024-01-15T08:16:53;17.60;;;9.07;;
4909;SDS011;2470;49.868;8.660;2024-01-15T08:19:18;20.00;;;9.20;;
4909;SDS011;2470;49.868;8.660;2024-01-15T08:21:47;18.20;;;8.50;;
4909;SDS011;2470;49.868;8.660;2024-01-15T08:24:12;18.60;;;8.63;;
4909;SDS011;2470;49.868;8.660;2024-01-15T08:26:39;20.17;;;8.27;;
4909;SDS011;2470;49.868;8.660;2024-01-15T08:29:05;19.60;;;9.40;;
4909;SDS011;2470;49.868;8.660;2024-01-15T08:31:30;24.07;;;9.20;;
4909;SDS011;2470;49.868;8.660;2024-01-15T08:33:56;23.17;;;8.43;;
4909;SDS011;2470;49.868;8.660;2024-01-15T08:36:21;24.57;;;9.77;;
4909;SDS011;2470;49.868;8.660;2024-01-15T08:38:47;25.00;;;10.90;;
4909;SDS011;2470;49.868;8.660;2024-01-15T08:41:13;18.43;;;8.20;;
4909;SDS011;2470;49.868;8.660;2024-01-15T08:43:39;21.30;;;8.97;;
4909;SDS011;2470;49.868;8.660;2024-01-15T08:46:04;19.13;;;8.87;;
4909;SDS011;2470;49.868;8.660;2024-01-15T08:48:30;22.20;;;10.87;;
4909;SDS011;2470;49.868;8.660;2024-01-15T08:50:56;16.73;;;7.27;;
4909;SDS011;2470;49.868;8.660;2024-01-15T08:53:21;26.87;;;8.33;;
4909;SDS011;2470;49.868;8.660;2024-01-15T08:55:47;17.80;;;9.03;;
4909;SDS011;2470;49.868;8.660;2024-01-15T08:58:13;24.23;;;10.33;;
4909;SDS011;2470;49.868;8.660;2024-01-15T09:00:39;22.67;;;8.60;;
4909;SDS011;2470;49.868;8.660;2024-01-15T09:03:05;21.83;;;9.10;;
4909;SDS011;2470;49.868;8.660;2024-01-15T09:05:30;19.50;;;8.00;;
4909;SDS011;2470;49.868;8.660;2024-01-15T09:07:56;24.00;;;10.97;;
4909;SDS011;2470;49.868;8.660;2024-01-15T09:10:21;29.83;;;9.77;;
4909;SDS011;2470;49.868;8.660;2024-01-15T09:12:47;29.27;;;10.73;;
4909;SDS011;2470;49.868;8.660;2024-01-15T09:15:14;17.73;;;8.50;;
4909;SDS011;2470;49.868;8.660;2024-01-15T09:17:39;38.73;;;9.17;;
4909;SDS011;2470;49.868;8.660;2024-01-15T09:20:05;26.70;;;8.73;;
4909;SDS011;2470;49.868;8.660;2024-01-15T09:22:31;24.90;;;10.17;;
4909;SDS011;2470;49.868;8.660;2024-01-15T09:24:57;25.80;;;9.50;;
4909;SDS011;2470;49.868;8.660;2024-01-15T09:27:23;22.70;;;8.70;;
4909;SDS011;2470;49.868;8.660;2024-01-15T09:29:51;19.50;;;9.90;;
4909;SDS011;2470;49.868;8.660;2024-01-15T09:32:17;18.50;;;7.90;;
4909;SDS011;2470;49.868;8.660;2024-01-15T09:34:43;22.23;;;8.67;;
4909;SDS011;2470;49.868;8.660;2024-01-15T09:37:09;26.43;;;10.13;;
4909;SDS011;2470;49.868;8.660;2024-01-15T09:39:34;24.50;;;10.33;;
4909;SDS011;2470;49.868;8.660;2024-01-15T09:42:00;25.53;;;9.90;;
4909;SDS011;2470;49.868;8.660;2024-01-15T09:44:26;22.47;;;9.83;;
4909;SDS011;2470;49.868;8.660;2024-01-15T09:46:53;28.70;;;9.23;;
4909;SDS011;2470;49.868;8.660;2024-01-15T09:49:20;23.40;;;10.47;;
4909;SDS011;2470;49.868;8.660;2024-01-15T09:51:45;20.33;;;9.37;;
4909;SDS011;2470;49.868;8.660;2024-01-15T09:54:12;24.20;;;10.20;;
4909;SDS011;2470;49.868;8.660;2024-01-15T09:56:41;20.27;;;9.23;;
4909;SDS011;2470;49.868;8.660;2024-01-15T09:59:10;20.37;;;8.93;;
4909;SDS011;2470;49.868;8.660;2024-01-15T10:01:39;18.90;;;9.17;;
4909;SDS011;2470;49.868;8.660;2024-01-15T10:04:05;23.63;;;8.07;;
4909;SDS011;2470;49.868;8.660;2024-01-15T10:06:31;23.23;;;8.90;;
4909;SDS011;2470;49.868;8.660;2024-01-15T10:08:58;23.90;;;9.30;;
4909;SDS011;2470;49.868;8.660;2024-01-15T10:11:24;28.27;;;9.90;;
4909;SDS011;2470;49.868;8.660;2024-01-15T10:13:49;19.20;;;8.00;;
4909;SDS011;2470;49.868;8.660;2024-01-15T10:16:19;23.93;;;8.90;;
4909;SDS011;2470;49.868;8.660;2024-01-15T10:18:44;19.17;;;7.43;;
4909;SDS011;2470;49.868;8.660;2024-01-15T10:21:10;22.97;;;9.77;;
4909;SDS011;2470;49.868;8.660;2024-01-15T10:23:36;24.00;;;9.60;;
4909;SDS011;2470;49.868;8.660;2024-01-15T10:26:02;26.30;;;9.80;;
4909;SDS011;2470;49.868;8.660;2024-01-15T10:28:28;22.30;;;9.83;;
4909;SDS011;2470;49.868;8.660;2024-01-15T10:30:55;25.50;;;7.97;;
4909;SDS011;2470;49.868;8.660;2024-01-15T10:33:22;21.43;;;9.07;;
4909;SDS011;2470;49.868;8.660;2024-01-15T10:35:53;26.57;;;9.83;;
4909;SDS011;2470;49.868;8.660;2024-01-15T10:38:22;25.20;;;8.73;;
4909;SDS011;2470;49.868;8.660;2024-01-15T10:40:55;18.40;;;8.27;;
4909;SDS011;2470;49.868;8.660;2024-01-15T10:43:21;19.13;;;8.90;;
4909;SDS011;2470;49.868;8.660;2024-01-15T10:45:48;20.97;;;9.33;;
4909;SDS011;2470;49.868;8.660;2024-01-15T10:48:16;23.87;;;9.87;;
4909;SDS011;2470;49.868;8.660;2024-01-15T10:50:43;16.70;;;8.13;;
4909;SDS011;2470;49.868;8.660;2024-01-15T10:53:09;21.33;;;9.47;;
4909;SDS011;2470;49.868;8.660;2024-01-15T10:55:37;21.23;;;8.70;;
4909;SDS011;2470;49.868;8.660;2024-01-15T10:58:04;23.23;;;9.43;;
4909;SDS011;2470;49.868;8.660;2024-01-15T11:00:32;18.90;;;8.40;;
4909;SDS011;2470;49.868;8.660;2024-01-15T11:03:02;17.93;;;8.77;;
4909;SDS011;2470;49.868;8.660;2024-01-15T11:05:32;23.27;;;10.60;;
4909;SDS011;2470;49.868;8.660;2024-01-15T11:07:59;23.10;;;9.60;;
4909;SDS011;2470;49.868;8.660;2024-01-15T11:10:42;25.40;;;9.17;;
4909;SDS011;2470;49.868;8.660;2024-01-15T11:13:15;14.73;;;7.40;;
4909;SDS011;2470;49.868;8.660;2024-01-15T11:18:41;19.40;;;9.53;;
4909;SDS011;2470;49.868;8.660;2024-01-15T11:23:46;19.80;;;8.60;;
4909;SDS011;2470;49.868;8.660;2024-01-15T11:32:07;17.60;;;8.97;;
4909;SDS011;2470;49.868;8.660;2024-01-15T11:37:27;18.13;;;8.17;;
4909;SDS011;2470;49.868;8.660;2024-01-15T11:40:12;14.47;;;7.47;;
4909;SDS011;2470;49.868;8.660;2024-01-15T11:42:39;17.63;;;8.00;;
4909;SDS011;2470;49.868;8.660;2024-01-15T11:45:04;16.37;;;8.20;;
4909;SDS011;2470;49.868;8.660;2024-01-15T11:47:40;12.23;;;6.17;;
4909;SDS011;2470;49.868;8.660;2024-01-15T11:50:30;15.83;;;7.17;;
4909;SDS011;2470;49.868;8.660;2024-01-15T11:52:59;14.03;;;7.27;;
4909;SDS011;2470;49.868;8.660;2024-01-15T11:55:27;15.00;;;6.97;;
4909;SDS011;2470;49.868;8.660;2024-01-15T11:57:55;15.83;;;7.07;;
4909;SDS011;2470;49.868;8.660;2024-01-15T12:00:25;20.07;;;7.40;;
4909;SDS011;2470;49.868;8.660;2024-01-15T12:02:51;16.13;;;6.70;;
4909;SDS011;2470;49.868;8.660;2024-01-15T12:05:17;14.40;;;7.83;;
4909;SDS011;2470;49.868;8.660;2024-01-15T12:07:43;17.20;;;6.60;;
4909;SDS011;2470;49.868;8.660;2024-01-15T12:10:11;12.60;;;6.57;;
4909;SDS011;2470;49.868;8.660;2024-01-15T12:12:56;16.13;;;6.77;;
4909;SDS011;2470;49.868;8.660;2024-01-15T12:15:29;16.67;;;7.27;;
4909;SDS011;2470;49.868;8.660;2024-01-15T12:17:57;15.83;;;6.60;;
4909;SDS011;2470;49.868;8.660;2024-01-15T12:20:24;16.23;;;7.30;;
4909;SDS011;2470;49.868;8.660;2024-01-15T12:22:57;14.53;;;7.00;;
4909;SDS011;2470;49.868;8.660;2024-01-15T12:25:23;21.63;;;7.60;;
4909;SDS011;2470;49.868;8.660;2024-01-15T12:27:49;15.43;;;7.63;;
4909;SDS011;2470;49.868;8.660;2024-01-15T12:30:15;16.20;;;7.77;;
4909;SDS011;2470;49.868;8.660;2024-01-15T12:32:41;18.07;;;7.43;;
4909;SDS011;2470;49.868;8.660;2024-01-15T12:35:07;21.53;;;8.10;;
4909;SDS011;2470;49.868;8.660;2024-01-15T12:37:36;11.60;;;6.43;;
4909;SDS011;2470;49.868;8.660;2024-01-15T12:40:03;22.40;;;7.90;;
4909;SDS011;2470;49.868;8.660;2024-01-15T12:42:32;16.40;;;6.83;;
4909;SDS011;2470;49.868;8.660;2024-01-15T12:45:07;11.50;;;6.47;;
4909;SDS011;2470;49.868;8.660;2024-01-15T12:47:33;15.07;;;6.17;;
4909;SDS011;2470;49.868;8.660;2024-01-15T12:50:00;15.67;;;7.10;;
4909;SDS011;2470;49.868;8.660;2024-01-15T12:52:28;14.50;;;7.10;;
4909;SDS011;2470;49.868;8.660;2024-01-15T12:54:54;18.97;;;7.53;;
4909;SDS011;2470;49.868;8.660;2024-01-15T12:57:20;16.40;;;6.70;;
4909;SDS011;2470;49.868;8.660;2024-01-15T12:59:46;11.10;;;6.47;;
4909;SDS011;2470;49.868;8.660;2024-01-15T13:02:12;12.20;;;6.33;;
4909;SDS011;2470;49.868;8.660;2024-01-15T13:04:38;11.10;;;5.97;;
4909;SDS011;2470;49.868;8.660;2024-01-15T13:07:03;15.47;;;6.10;;
4909;SDS011;2470;49.868;8.660;2024-01-15T13:09:30;10.23;;;5.50;;
4909;SDS011;2470;49.868;8.660;2024-01-15T13:11:55;11.17;;;6.00;;
4909;SDS011;2470;49.868;8.660;2024-01-15T13:14:21;9.17;;;4.87;;
4909;SDS011;2470;49.868;8.660;2024-01-15T13:16:46;9.07;;;5.37;;
4909;SDS011;2470;49.868;8.660;2024-01-15T13:19:12;11.07;;;6.00;;
4909;SDS011;2470;49.868;8.660;2024-01-15T13:21:38;10.13;;;5.03;;
4909;SDS011;2470;49.868;8.660;2024-01-15T13:24:05;9.87;;;5.37;;
4909;SDS011;2470;49.868;8.660;2024-01-15T13:26:31;12.37;;;5.90;;
4909;SDS011;2470;49.868;8.660;2024-01-15T13:28:58;11.50;;;6.13;;
4909;SDS011;2470;49.868;8.660;2024-01-15T13:31:24;13.03;;;5.77;;
4909;SDS011;2470;49.868;8.660;2024-01-15T13:33:50;16.47;;;6.17;;
4909;SDS011;2470;49.868;8.660;2024-01-15T13:36:15;10.13;;;5.20;;
4909;SDS011;2470;49.868;8.660;2024-01-15T13:38:41;10.97;;;5.67;;
4909;SDS011;2470;49.868;8.660;2024-01-15T13:41:07;14.83;;;5.40;;
4909;SDS011;2470;49.868;8.660;2024-01-15T13:43:33;13.23;;;6.30;;
4909;SDS011;2470;49.868;8.660;2024-01-15T13:45:59;7.40;;;4.13;;
4909;SDS011;2470;49.868;8.660;2024-01-15T13:48:25;11.87;;;5.23;;
4909;SDS011;2470;49.868;8.660;2024-01-15T13:50:51;10.80;;;4.70;;
4909;SDS011;2470;49.868;8.660;2024-01-15T13:53:17;14.23;;;5.47;;
4909;SDS011;2470;49.868;8.660;2024-01-15T13:55:44;7.40;;;4.27;;
4909;SDS011;2470;49.868;8.660;2024-01-15T13:58:09;9.47;;;4.90;;
4909;SDS011;2470;49.868;8.660;2024-01-15T14:00:35;13.00;;;5.13;;
4909;SDS011;2470;49.868;8.660;2024-01-15T14:03:01;9.17;;;3.83;;
4909;SDS011;2470;49.868;8.660;2024-01-15T14:05:26;7.50;;;5.07;;
4909;SDS011;2470;49.868;8.660;2024-01-15T14:07:52;11.03;;;5.23;;
4909;SDS011;2470;49.868;8.660;2024-01-15T14:10:17;16.23;;;5.60;;
4909;SDS011;2470;49.868;8.660;2024-01-15T14:12:43;9.90;;;5.20;;
4909;SDS011;2470;49.868;8.660;2024-01-15T14:15:09;10.87;;;5.07;;
4909;SDS011;2470;49.868;8.660;2024-01-15T14:17:34;12.10;;;4.63;;
4909;SDS011;2470;49.868;8.660;2024-01-15T14:20:00;9.53;;;4.27;;
4909;SDS011;2470;49.868;8.660;2024-01-15T14:22:25;11.50;;;4.57;;
4909;SDS011;2470;49.868;8.660;2024-01-15T14:24:51;7.87;;;4.03;;
4909;SDS011;2470;49.868;8.660;2024-01-15T14:27:17;6.43;;;4.10;;
4909;SDS011;2470;49.868;8.660;2024-01-15T14:29:42;14.23;;;4.10;;
4909;SDS011;2470;49.868;8.660;2024-01-15T14:32:08;6.97;;;4.87;;
4909;SDS011;2470;49.868;8.660;2024-01-15T14:34:33;7.87;;;4.00;;
4909;SDS011;2470;49.868;8.660;2024-01-15T14:37:02;5.37;;;3.50;;
4909;SDS011;2470;49.868;8.660;2024-01-15T14:39:27;6.90;;;4.20;;
4909;SDS011;2470;49.868;8.660;2024-01-15T14:41:53;13.57;;;4.23;;
4909;SDS011;2470;49.868;8.660;2024-01-15T14:44:18;16.83;;;4.13;;
4909;SDS011;2470;49.868;8.660;2024-01-15T14:46:44;6.27;;;4.30;;
4909;SDS011;2470;49.868;8.660;2024-01-15T14:49:10;7.20;;;4.40;;
4909;SDS011;2470;49.868;8.660;2024-01-15T14:51:36;8.57;;;5.13;;
4909;SDS011;2470;49.868;8.660;2024-01-15T14:54:01;6.10;;;3.60;;
4909;SDS011;2470;49.868;8.660;2024-01-15T14:56:27;4.60;;;3.00;;
4909;SDS011;2470;49.868;8.660;2024-01-15T14:58:54;9.73;;;3.70;;
4909;SDS011;2470;49.868;8.660;2024-01-15T15:01:19;6.67;;;3.60;;
4909;SDS011;2470;49.868;8.660;2024-01-15T15:03:45;8.40;;;4.67;;
4909;SDS011;2470;49.868;8.660;2024-01-15T15:06:10;9.13;;;3.90;;
4909;SDS011;2470;49.868;8.660;2024-01-15T15:08:37;5.77;;;3.50;;